sensor_id;sensor_type;location;lat;lon;timestamp;pressure;altitude;pressure_sealevel;temperature;humidity
55675;BME280;41562;44.330;23.802;2022-08-25T00:01:48;99987.66;;;21.21;100.00
55675;BME280;41562;44.330;23.802;2022-08-25T00:04:16;99993.28;;;21.29;100.00
55675;BME280;41562;44.330;23.802;2022-08-25T00:06:49;99987.38;;;21.26;100.00
55675;BME280;41562;44.330;23.802;2022-08-25T00:09:19;99986.59;;;21.26;100.00
55675;BME280;41562;44.330;23.802;2022-08-25T00:11:47;99986.78;;;21.17;100.00
55675;BME280;41562;44.330;23.802;2022-08-25T00:14:16;99986.50;;;21.22;100.00
55675;BME280;41562;44.330;23.802;2022-08-25T00:16:44;99989.69;;;21.12;100.00
55675;BME280;41562;44.330;23.802;2022-08-25T00:19:13;99997.41;;;21.10;100.00
55675;BME280;41562;44.330;23.802;2022-08-25T00:21:45;100005.13;;;21.08;100.00
55675;BME280;41562;44.330;23.802;2022-08-25T00:24:14;100004.25;;;21.04;100.00
55675;BME280;41562;44.330;23.802;2022-08-25T00:26:52;100002.31;;;21.05;100.00
55675;BME280;41562;44.330;23.802;2022-08-25T00:29:20;99999.81;;;21.00;100.00
55675;BME280;41562;44.330;23.802;2022-08-25T00:31:47;99998.09;;;21.07;100.00
55675;BME280;41562;44.330;23.802;2022-08-25T00:34:17;99993.97;;;20.98;100.00
55675;BME280;41562;44.330;23.802;2022-08-25T00:36:47;99987.72;;;20.97;100.00
55675;BME280;41562;44.330;23.802;2022-08-25T00:39:20;99990.94;;;20.87;100.00
55675;BME280;41562;44.330;23.802;2022-08-25T00:41:49;99984.34;;;20.88;100.00
55675;BME280;41562;44.330;23.802;2022-08-25T00:44:23;99981.09;;;20.82;100.00
55675;BME280;41562;44.330;23.802;2022-08-25T00:46:54;99986.00;;;20.77;100.00
55675;BME280;41562;44.330;23.802;2022-08-25T00:49:36;99977.16;;;20.80;100.00
55675;BME280;41562;44.330;23.802;2022-08-25T00:52:06;99982.88;;;20.91;100.00
55675;BME280;41562;44.330;23.802;2022-08-25T00:54:38;99979.84;;;20.92;100.00
55675;BME280;41562;44.330;23.802;2022-08-25T00:57:06;99974.41;;;20.92;100.00
55675;BME280;41562;44.330;23.802;2022-08-25T00:59:40;99982.78;;;20.87;100.00
55675;BME280;41562;44.330;23.802;2022-08-25T01:02:08;99978.19;;;20.75;100.00
55675;BME280;41562;44.330;23.802;2022-08-25T01:04:43;99984.59;;;20.83;100.00
55675;BME280;41562;44.330;23.802;2022-08-25T01:07:15;99990.38;;;20.81;100.00
55675;BME280;41562;44.330;23.802;2022-08-25T01:09:49;99976.72;;;20.78;100.00
55675;BME280;41562;44.330;23.802;2022-08-25T01:12:21;99982.41;;;20.73;100.00
55675;BME280;41562;44.330;23.802;2022-08-25T01:14:48;99981.59;;;20.72;100.00
55675;BME280;41562;44.330;23.802;2022-08-25T01:17:19;99977.75;;;20.73;100.00
55675;BME280;41562;44.330;23.802;2022-08-25T01:19:49;99981.47;;;20.69;100.00
55675;BME280;41562;44.330;23.802;2022-08-25T01:22:16;99978.34;;;20.67;100.00
55675;BME280;41562;44.330;23.802;2022-08-25T01:24:46;99976.75;;;20.66;100.00
55675;BME280;41562;44.330;23.802;2022-08-25T01:27:15;99976.09;;;20.57;100.00
55675;BME280;41562;44.330;23.802;2022-08-25T01:29:49;99972.16;;;20.54;100.00
55675;BME280;41562;44.330;23.802;2022-08-25T01:32:19;99975.97;;;20.65;100.00
55675;BME280;41562;44.330;23.802;2022-08-25T01:34:49;99975.16;;;20.65;100.00
55675;BME280;41562;44.330;23.802;2022-08-25T01:37:18;99980.72;;;20.56;100.00
55675;BME280;41562;44.330;23.802;2022-08-25T01:39:48;99971.56;;;20.61;100.00
55675;BME280;41562;44.330;23.802;2022-08-25T01:42:23;99981.53;;;20.57;100.00
55675;BME280;41562;44.330;23.802;2022-08-25T01:45:00;99973.50;;;20.60;100.00
55675;BME280;41562;44.330;23.802;2022-08-25T01:47:28;99975.16;;;20.65;100.00
55675;BME280;41562;44.330;23.802;2022-08-25T01:49:59;99975.84;;;20.62;100.00
55675;BME280;41562;44.330;23.802;2022-08-25T01:52:33;99982.84;;;20.63;100.00
55675;BME280;41562;44.330;23.802;2022-08-25T01:55:03;99967.25;;;20.60;100.00
55675;BME280;41562;44.330;23.802;2022-08-25T01:57:36;99968.59;;;20.66;100.00
55675;BME280;41562;44.330;23.802;2022-08-25T02:00:04;99959.44;;;20.58;100.00
55675;BME280;41562;44.330;23.802;2022-08-25T02:02:35;99965.44;;;20.64;100.00
55675;BME280;41562;44.330;23.802;2022-08-25T02:05:12;99960.69;;;20.61;100.00
55675;BME280;41562;44.330;23.802;2022-08-25T02:07:43;99969.44;;;20.54;100.00
55675;BME280;41562;44.330;23.802;2022-08-25T02:10:11;99962.72;;;20.64;100.00
55675;BME280;41562;44.330;23.802;2022-08-25T02:12:38;99963.19;;;20.54;100.00
55675;BME280;41562;44.330;23.802;2022-08-25T02:15:07;99954.84;;;20.46;100.00
55675;BME280;41562;44.330;23.802;2022-08-25T02:17:34;99945.31;;;20.53;100.00
55675;BME280;41562;44.330;23.802;2022-08-25T02:20:03;99943.63;;;20.48;100.00
55675;BME280;41562;44.330;23.802;2022-08-25T02:22:33;99950.03;;;20.56;100.00
55675;BME280;41562;44.330;23.802;2022-08-25T02:25:00;99961.03;;;21.15;100.00
55675;BME280;41562;44.330;23.802;2022-08-25T02:27:27;99956.66;;;22.20;97.75
55675;BME280;41562;44.330;23.802;2022-08-25T02:29:58;99958.53;;;22.00;98.10
55675;BME280;41562;44.330;23.802;2022-08-25T02:32:25;99945.41;;;22.22;96.75
55675;BME280;41562;44.330;23.802;2022-08-25T02:34:53;99957.94;;;22.26;95.97
55675;BME280;41562;44.330;23.802;2022-08-25T02:37:23;99952.31;;;22.35;95.27
55675;BME280;41562;44.330;23.802;2022-08-25T02:39:55;99949.88;;;22.30;94.45
55675;BME280;41562;44.330;23.802;2022-08-25T02:42:25;99951.59;;;22.03;95.48
55675;BME280;41562;44.330;23.802;2022-08-25T02:44:59;99947.06;;;22.26;94.35
55675;BME280;41562;44.330;23.802;2022-08-25T02:47:30;99955.81;;;22.35;93.77
55675;BME280;41562;44.330;23.802;2022-08-25T02:49:57;99947.84;;;22.27;94.34
55675;BME280;41562;44.330;23.802;2022-08-25T02:52:24;99936.28;;;22.14;95.22
55675;BME280;41562;44.330;23.802;2022-08-25T02:54:52;99944.50;;;21.98;95.84
55675;BME280;41562;44.330;23.802;2022-08-25T02:57:22;99936.72;;;22.16;94.79
55675;BME280;41562;44.330;23.802;2022-08-25T02:59:49;99941.50;;;22.03;95.83
55675;BME280;41562;44.330;23.802;2022-08-25T03:02:17;99939.13;;;22.02;96.26
55675;BME280;41562;44.330;23.802;2022-08-25T03:04:50;99945.00;;;22.04;95.79
55675;BME280;41562;44.330;23.802;2022-08-25T03:07:21;99948.53;;;22.04;95.56
55675;BME280;41562;44.330;23.802;2022-08-25T03:09:50;99945.88;;;21.92;96.35
55675;BME280;41562;44.330;23.802;2022-08-25T03:12:18;99940.97;;;21.51;98.61
55675;BME280;41562;44.330;23.802;2022-08-25T03:14:50;99948.63;;;21.61;98.25
55675;BME280;41562;44.330;23.802;2022-08-25T03:17:20;99948.97;;;21.91;97.09
55675;BME280;41562;44.330;23.802;2022-08-25T03:19:48;99944.41;;;21.79;96.48
55675;BME280;41562;44.330;23.802;2022-08-25T03:22:18;99946.25;;;21.91;95.70
55675;BME280;41562;44.330;23.802;2022-08-25T03:24:46;99947.03;;;21.91;95.51
55675;BME280;41562;44.330;23.802;2022-08-25T03:27:16;99949.66;;;21.88;95.57
55675;BME280;41562;44.330;23.802;2022-08-25T03:29:44;99949.66;;;21.88;95.87
55675;BME280;41562;44.330;23.802;2022-08-25T03:32:11;99952.22;;;21.96;94.67
55675;BME280;41562;44.330;23.802;2022-08-25T03:34:43;99956.19;;;21.67;96.10
55675;BME280;41562;44.330;23.802;2022-08-25T03:37:28;99949.16;;;21.66;96.46
55675;BME280;41562;44.330;23.802;2022-08-25T03:39:58;99952.94;;;21.62;96.39
55675;BME280;41562;44.330;23.802;2022-08-25T03:42:26;99953.56;;;21.55;96.92
55675;BME280;41562;44.330;23.802;2022-08-25T03:44:53;99953.47;;;21.36;98.11
55675;BME280;41562;44.330;23.802;2022-08-25T03:47:26;99957.91;;;21.29;98.04
55675;BME280;41562;44.330;23.802;2022-08-25T03:49:54;99952.03;;;21.26;98.76
55675;BME280;41562;44.330;23.802;2022-08-25T03:52:25;99958.97;;;21.24;98.90
55675;BME280;41562;44.330;23.802;2022-08-25T03:54:55;99958.66;;;21.13;100.00
55675;BME280;41562;44.330;23.802;2022-08-25T03:57:26;99955.38;;;21.36;98.00
55675;BME280;41562;44.330;23.802;2022-08-25T03:59:57;99954.25;;;21.37;97.94
55675;BME280;41562;44.330;23.802;2022-08-25T04:02:26;99964.75;;;21.38;97.91
55675;BME280;41562;44.330;23.802;2022-08-25T04:04:57;99958.72;;;21.45;97.98
55675;BME280;41562;44.330;23.802;2022-08-25T04:07:28;99956.91;;;21.49;98.08
55675;BME280;41562;44.330;23.802;2022-08-25T04:10:06;99956.06;;;21.33;98.09
55675;BME280;41562;44.330;23.802;2022-08-25T04:12:34;99960.41;;;21.49;96.96
55675;BME280;41562;44.330;23.802;2022-08-25T04:15:03;99958.72;;;21.60;96.25
55675;BME280;41562;44.330;23.802;2022-08-25T04:17:31;99962.94;;;21.58;96.06
55675;BME280;41562;44.330;23.802;2022-08-25T04:19:59;99968.91;;;21.63;95.64
55675;BME280;41562;44.330;23.802;2022-08-25T04:22:31;99968.56;;;21.65;95.95
55675;BME280;41562;44.330;23.802;2022-08-25T04:25:03;99970.47;;;21.64;95.82
55675;BME280;41562;44.330;23.802;2022-08-25T04:27:34;99969.97;;;21.59;95.57
55675;BME280;41562;44.330;23.802;2022-08-25T04:30:05;99980.84;;;21.90;94.06
55675;BME280;41562;44.330;23.802;2022-08-25T04:32:34;99969.44;;;22.00;93.32
55675;BME280;41562;44.330;23.802;2022-08-25T04:35:02;99973.13;;;21.92;93.74
55675;BME280;41562;44.330;23.802;2022-08-25T04:37:34;99967.16;;;22.02;93.04
55675;BME280;41562;44.330;23.802;2022-08-25T04:40:05;99972.69;;;21.75;94.66
55675;BME280;41562;44.330;23.802;2022-08-25T04:42:33;99984.53;;;21.51;96.39
55675;BME280;41562;44.330;23.802;2022-08-25T04:45:04;99981.22;;;21.73;95.63
55675;BME280;41562;44.330;23.802;2022-08-25T04:47:40;99982.25;;;21.84;95.33
55675;BME280;41562;44.330;23.802;2022-08-25T04:50:07;99972.59;;;21.71;95.64
55675;BME280;41562;44.330;23.802;2022-08-25T04:52:35;99978.81;;;21.72;95.89
55675;BME280;41562;44.330;23.802;2022-08-25T04:55:05;99977.97;;;21.67;95.77
55675;BME280;41562;44.330;23.802;2022-08-25T04:57:32;99972.16;;;21.69;96.05
55675;BME280;41562;44.330;23.802;2022-08-25T05:00:03;99974.09;;;21.69;96.27
55675;BME280;41562;44.330;23.802;2022-08-25T05:02:31;99980.75;;;21.71;96.01
55675;BME280;41562;44.330;23.802;2022-08-25T05:04:59;99977.66;;;21.88;95.46
55675;BME280;41562;44.330;23.802;2022-08-25T05:07:46;99977.97;;;21.67;96.46
55675;BME280;41562;44.330;23.802;2022-08-25T05:10:14;99981.91;;;22.01;94.85
55675;BME280;41562;44.330;23.802;2022-08-25T05:12:49;99983.66;;;21.78;96.22
55675;BME280;41562;44.330;23.802;2022-08-25T05:15:24;99980.75;;;22.18;94.24
55675;BME280;41562;44.330;23.802;2022-08-25T05:17:52;99975.09;;;22.27;93.35
55675;BME280;41562;44.330;23.802;2022-08-25T05:20:22;99975.97;;;22.31;93.21
55675;BME280;41562;44.330;23.802;2022-08-25T05:22:50;99977.19;;;22.33;93.03
55675;BME280;41562;44.330;23.802;2022-08-25T05:25:22;99970.31;;;22.39;92.60
55675;BME280;41562;44.330;23.802;2022-08-25T05:27:51;99972.00;;;22.44;92.69
55675;BME280;41562;44.330;23.802;2022-08-25T05:30:18;99977.34;;;22.40;93.22
55675;BME280;41562;44.330;23.802;2022-08-25T05:32:51;99973.34;;;22.54;92.48
55675;BME280;41562;44.330;23.802;2022-08-25T05:35:22;99972.09;;;22.86;90.29
55675;BME280;41562;44.330;23.802;2022-08-25T05:37:52;99966.03;;;22.58;92.95
55675;BME280;41562;44.330;23.802;2022-08-25T05:40:22;99974.28;;;22.42;93.78
55675;BME280;41562;44.330;23.802;2022-08-25T05:45:40;99981.63;;;22.57;93.30
55675;BME280;41562;44.330;23.802;2022-08-25T05:48:11;99979.16;;;22.52;94.09
55675;BME280;41562;44.330;23.802;2022-08-25T05:50:41;99973.19;;;22.81;92.07
55675;BME280;41562;44.330;23.802;2022-08-25T05:53:14;99982.56;;;23.03;91.08
55675;BME280;41562;44.330;23.802;2022-08-25T05:55:43;99970.84;;;23.03;91.05
55675;BME280;41562;44.330;23.802;2022-08-25T05:58:10;99974.03;;;23.05;91.11
55675;BME280;41562;44.330;23.802;2022-08-25T06:00:40;99977.53;;;23.05;91.30
55675;BME280;41562;44.330;23.802;2022-08-25T06:03:07;99984.03;;;23.39;90.17
55675;BME280;41562;44.330;23.802;2022-08-25T06:05:37;99980.56;;;23.65;87.91
55675;BME280;41562;44.330;23.802;2022-08-25T06:08:05;99985.59;;;23.86;87.28
55675;BME280;41562;44.330;23.802;2022-08-25T06:10:33;99987.22;;;23.90;86.97
55675;BME280;41562;44.330;23.802;2022-08-25T06:13:04;99986.88;;;23.92;87.52
55675;BME280;41562;44.330;23.802;2022-08-25T06:15:36;99991.09;;;24.12;87.57
55675;BME280;41562;44.330;23.802;2022-08-25T06:18:04;99996.22;;;24.17;86.75
55675;BME280;41562;44.330;23.802;2022-08-25T06:20:33;99995.53;;;24.47;85.81
55675;BME280;41562;44.330;23.802;2022-08-25T06:23:03;99991.84;;;24.35;85.43
55675;BME280;41562;44.330;23.802;2022-08-25T06:25:38;99994.28;;;24.40;84.32
55675;BME280;41562;44.330;23.802;2022-08-25T06:28:05;99998.63;;;24.45;85.20
55675;BME280;41562;44.330;23.802;2022-08-25T06:30:34;99993.53;;;24.43;85.53
55675;BME280;41562;44.330;23.802;2022-08-25T06:33:07;99999.66;;;24.33;87.16
55675;BME280;41562;44.330;23.802;2022-08-25T06:35:43;99992.00;;;24.46;85.75
55675;BME280;41562;44.330;23.802;2022-08-25T06:38:14;99999.13;;;24.54;86.22
55675;BME280;41562;44.330;23.802;2022-08-25T06:40:48;99990.63;;;24.59;85.99
55675;BME280;41562;44.330;23.802;2022-08-25T06:43:18;99989.50;;;24.64;86.17
55675;BME280;41562;44.330;23.802;2022-08-25T06:45:52;99998.34;;;24.54;89.05
55675;BME280;41562;44.330;23.802;2022-08-25T06:48:19;99992.47;;;24.85;85.33
55675;BME280;41562;44.330;23.802;2022-08-25T06:50:47;99993.94;;;24.75;87.54
55675;BME280;41562;44.330;23.802;2022-08-25T06:53:15;99994.72;;;24.76;87.27
55675;BME280;41562;44.330;23.802;2022-08-25T06:55:55;99991.34;;;25.19;84.49
55675;BME280;41562;44.330;23.802;2022-08-25T06:58:26;99989.78;;;25.18;85.72
55675;BME280;41562;44.330;23.802;2022-08-25T07:01:17;99992.81;;;25.10;86.53
55675;BME280;41562;44.330;23.802;2022-08-25T07:03:52;99993.91;;;25.42;85.74
55675;BME280;41562;44.330;23.802;2022-08-25T07:06:21;99999.47;;;25.49;83.26
55675;BME280;41562;44.330;23.802;2022-08-25T07:08:52;99999.47;;;25.49;84.41
55675;BME280;41562;44.330;23.802;2022-08-25T07:11:22;100003.50;;;25.59;84.21
55675;BME280;41562;44.330;23.802;2022-08-25T07:13:52;99997.69;;;25.64;83.93
55675;BME280;41562;44.330;23.802;2022-08-25T07:16:22;100003.50;;;25.59;83.65
55675;BME280;41562;44.330;23.802;2022-08-25T07:19:00;100008.78;;;25.78;83.86
55675;BME280;41562;44.330;23.802;2022-08-25T07:21:32;100006.53;;;25.91;84.01
55675;BME280;41562;44.330;23.802;2022-08-25T07:24:06;100000.66;;;25.92;82.66
55675;BME280;41562;44.330;23.802;2022-08-25T07:26:37;99998.75;;;25.96;83.07
55675;BME280;41562;44.330;23.802;2022-08-25T07:29:07;99996.84;;;26.04;82.92
55675;BME280;41562;44.330;23.802;2022-08-25T07:31:38;100000.81;;;26.14;82.39
55675;BME280;41562;44.330;23.802;2022-08-25T07:34:11;100005.63;;;26.24;81.90
55675;BME280;41562;44.330;23.802;2022-08-25T07:36:42;100004.47;;;26.28;82.05
55675;BME280;41562;44.330;23.802;2022-08-25T07:39:15;100002.19;;;26.41;81.12
55675;BME280;41562;44.330;23.802;2022-08-25T07:41:48;100008.88;;;26.47;80.73
55675;BME280;41562;44.330;23.802;2022-08-25T07:44:20;100008.22;;;26.75;77.30
55675;BME280;41562;44.330;23.802;2022-08-25T07:46:49;100010.53;;;26.62;78.30
55675;BME280;41562;44.330;23.802;2022-08-25T07:49:22;100001.16;;;26.70;79.94
55675;BME280;41562;44.330;23.802;2022-08-25T07:52:04;100001.97;;;26.78;78.94
55675;BME280;41562;44.330;23.802;2022-08-25T07:54:36;100011.88;;;26.93;78.67
55675;BME280;41562;44.330;23.802;2022-08-25T07:57:06;99996.63;;;27.10;77.51
55675;BME280;41562;44.330;23.802;2022-08-25T07:59:38;99998.53;;;26.92;77.83
55675;BME280;41562;44.330;23.802;2022-08-25T08:02:12;100004.81;;;26.96;76.87
55675;BME280;41562;44.330;23.802;2022-08-25T08:04:46;99999.31;;;26.89;78.18
55675;BME280;41562;44.330;23.802;2022-08-25T08:07:16;99993.44;;;26.94;78.20
55675;BME280;41562;44.330;23.802;2022-08-25T08:09:52;99985.59;;;26.96;78.22
55675;BME280;41562;44.330;23.802;2022-08-25T08:12:54;99988.41;;;27.10;76.79
55675;BME280;41562;44.330;23.802;2022-08-25T08:15:27;99988.03;;;27.15;75.87
55675;BME280;41562;44.330;23.802;2022-08-25T08:17:56;99980.19;;;27.28;76.37
55675;BME280;41562;44.330;23.802;2022-08-25T08:20:25;99979.34;;;26.99;78.25
55675;BME280;41562;44.330;23.802;2022-08-25T08:23:14;99987.50;;;26.88;76.64
55675;BME280;41562;44.330;23.802;2022-08-25T08:25:47;99991.75;;;26.71;76.72
55675;BME280;41562;44.330;23.802;2022-08-25T08:28:18;99989.38;;;26.63;76.93
55675;BME280;41562;44.330;23.802;2022-08-25T08:30:51;99978.34;;;26.56;78.50
55675;BME280;41562;44.330;23.802;2022-08-25T08:33:22;99979.88;;;26.50;77.44
55675;BME280;41562;44.330;23.802;2022-08-25T08:35:58;99983.00;;;26.45;77.60
55675;BME280;41562;44.330;23.802;2022-08-25T08:38:34;99975.94;;;26.40;78.43
55675;BME280;41562;44.330;23.802;2022-08-25T08:44:01;99969.66;;;26.43;77.31
55675;BME280;41562;44.330;23.802;2022-08-25T08:46:48;99975.56;;;26.45;78.03
55675;BME280;41562;44.330;23.802;2022-08-25T08:52:21;99974.31;;;26.32;75.29
55675;BME280;41562;44.330;23.802;2022-08-25T08:54:52;99973.16;;;26.29;75.90
55675;BME280;41562;44.330;23.802;2022-08-25T08:57:29;99964.09;;;26.25;76.93
55675;BME280;41562;44.330;23.802;2022-08-25T09:00:11;99975.47;;;26.27;72.32
55675;BME280;41562;44.330;23.802;2022-08-25T09:02:59;99970.75;;;26.24;73.55
55675;BME280;41562;44.330;23.802;2022-08-25T09:05:35;99968.38;;;26.23;77.73
55675;BME280;41562;44.330;23.802;2022-08-25T09:08:17;99964.19;;;26.36;79.06
55675;BME280;41562;44.330;23.802;2022-08-25T09:16:52;99958.16;;;26.20;76.21
55675;BME280;41562;44.330;23.802;2022-08-25T09:30:50;99959.69;;;26.10;71.37
55675;BME280;41562;44.330;23.802;2022-08-25T09:33:14;99947.94;;;26.10;77.27
55675;BME280;41562;44.330;23.802;2022-08-25T09:35:47;99947.09;;;25.98;77.59
55675;BME280;41562;44.330;23.802;2022-08-25T09:38:19;99946.72;;;26.03;73.21
55675;BME280;41562;44.330;23.802;2022-08-25T09:40:52;99945.97;;;26.10;74.67
55675;BME280;41562;44.330;23.802;2022-08-25T09:43:30;99950.63;;;26.06;73.95
55675;BME280;41562;44.330;23.802;2022-08-25T09:48:43;99946.25;;;25.94;75.43
55675;BME280;41562;44.330;23.802;2022-08-25T09:51:24;99944.28;;;25.91;74.00
55675;BME280;41562;44.330;23.802;2022-08-25T09:56:47;99932.50;;;25.84;72.74
55675;BME280;41562;44.330;23.802;2022-08-25T09:59:20;99929.75;;;25.84;69.91
55675;BME280;41562;44.330;23.802;2022-08-25T10:02:36;99935.66;;;25.86;69.82
55675;BME280;41562;44.330;23.802;2022-08-25T10:05:00;99934.88;;;25.89;67.78
55675;BME280;41562;44.330;23.802;2022-08-25T10:07:54;99929.81;;;25.91;71.82
55675;BME280;41562;44.330;23.802;2022-08-25T10:10:31;99932.94;;;25.93;75.59
55675;BME280;41562;44.330;23.802;2022-08-25T10:13:11;99922.75;;;25.93;78.00
55675;BME280;41562;44.330;23.802;2022-08-25T10:19:00;99935.28;;;25.94;72.07
55675;BME280;41562;44.330;23.802;2022-08-25T10:21:34;99927.06;;;25.94;72.99
55675;BME280;41562;44.330;23.802;2022-08-25T10:24:10;99926.69;;;25.96;72.19
55675;BME280;41562;44.330;23.802;2022-08-25T10:32:02;99923.16;;;25.92;69.34
55675;BME280;41562;44.330;23.802;2022-08-25T10:45:17;99910.81;;;26.23;69.15
55675;BME280;41562;44.330;23.802;2022-08-25T10:48:00;99917.13;;;26.27;69.85
55675;BME280;41562;44.330;23.802;2022-08-25T10:56:25;99903.50;;;26.48;65.88
55675;BME280;41562;44.330;23.802;2022-08-25T11:01:08;99896.84;;;26.56;67.34
55675;BME280;41562;44.330;23.802;2022-08-25T11:09:24;99886.72;;;26.67;65.09
55675;BME280;41562;44.330;23.802;2022-08-25T11:12:41;99884.44;;;26.94;61.40
55675;BME280;41562;44.330;23.802;2022-08-25T11:14:48;99889.19;;;27.33;59.87
55675;BME280;41562;44.330;23.802;2022-08-25T11:17:33;99885.66;;;27.39;57.66
55675;BME280;41562;44.330;23.802;2022-08-25T11:20:08;99879.00;;;27.58;59.79
55675;BME280;41562;44.330;23.802;2022-08-25T11:22:49;99872.69;;;27.79;58.66
55675;BME280;41562;44.330;23.802;2022-08-25T11:25:19;99866.41;;;27.85;62.16
55675;BME280;41562;44.330;23.802;2022-08-25T11:28:04;99864.44;;;27.86;57.71
55675;BME280;41562;44.330;23.802;2022-08-25T11:30:36;99864.38;;;28.14;62.32
55675;BME280;41562;44.330;23.802;2022-08-25T11:33:11;99861.63;;;28.14;60.24
55675;BME280;41562;44.330;23.802;2022-08-25T11:35:47;99862.78;;;28.24;59.04
55675;BME280;41562;44.330;23.802;2022-08-25T11:38:37;99849.81;;;28.10;58.64
55675;BME280;41562;44.330;23.802;2022-08-25T11:43:48;99853.34;;;28.25;56.22
55675;BME280;41562;44.330;23.802;2022-08-25T11:46:23;99848.19;;;28.37;57.24
55675;BME280;41562;44.330;23.802;2022-08-25T11:51:34;99842.19;;;28.57;55.80
55675;BME280;41562;44.330;23.802;2022-08-25T11:54:22;99835.91;;;28.53;54.60
55675;BME280;41562;44.330;23.802;2022-08-25T11:56:56;99836.69;;;28.57;56.30
55675;BME280;41562;44.330;23.802;2022-08-25T12:05:11;99828.00;;;28.62;51.49
55675;BME280;41562;44.330;23.802;2022-08-25T12:08:05;99814.63;;;28.64;47.63
55675;BME280;41562;44.330;23.802;2022-08-25T12:15:54;99812.97;;;28.77;49.35
55675;BME280;41562;44.330;23.802;2022-08-25T12:23:28;99806.22;;;28.85;46.34
55675;BME280;41562;44.330;23.802;2022-08-25T12:26:01;99806.94;;;28.96;44.87
55675;BME280;41562;44.330;23.802;2022-08-25T12:31:17;99814.56;;;29.26;46.18
55675;BME280;41562;44.330;23.802;2022-08-25T12:36:28;99807.81;;;29.31;45.86
55675;BME280;41562;44.330;23.802;2022-08-25T12:39:58;99810.44;;;29.48;43.93
55675;BME280;41562;44.330;23.802;2022-08-25T12:41:57;99808.84;;;29.47;39.90
55675;BME280;41562;44.330;23.802;2022-08-25T12:44:47;99811.28;;;29.42;40.08
55675;BME280;41562;44.330;23.802;2022-08-25T12:50:23;99809.97;;;29.09;37.78
55675;BME280;41562;44.330;23.802;2022-08-25T12:52:43;99813.34;;;28.83;37.74
55675;BME280;41562;44.330;23.802;2022-08-25T12:55:13;99805.16;;;28.65;39.16
55675;BME280;41562;44.330;23.802;2022-08-25T12:57:58;99807.13;;;28.68;39.23
55675;BME280;41562;44.330;23.802;2022-08-25T13:00:27;99794.44;;;28.88;38.86
55675;BME280;41562;44.330;23.802;2022-08-25T13:08:26;99800.75;;;29.30;38.88
55675;BME280;41562;44.330;23.802;2022-08-25T13:11:01;99799.56;;;29.31;39.65
55675;BME280;41562;44.330;23.802;2022-08-25T13:16:21;99796.38;;;29.36;38.86
55675;BME280;41562;44.330;23.802;2022-08-25T13:18:55;99793.22;;;29.37;39.17
55675;BME280;41562;44.330;23.802;2022-08-25T13:21:32;99795.56;;;29.39;38.35
55675;BME280;41562;44.330;23.802;2022-08-25T13:27:08;99794.03;;;29.31;39.62
55675;BME280;41562;44.330;23.802;2022-08-25T13:29:57;99796.41;;;29.32;39.12
55675;BME280;41562;44.330;23.802;2022-08-25T13:32:34;99787.03;;;29.23;40.38
55675;BME280;41562;44.330;23.802;2022-08-25T13:37:40;99781.47;;;29.30;39.66
55675;BME280;41562;44.330;23.802;2022-08-25T13:40:15;99779.94;;;29.25;42.38
55675;BME280;41562;44.330;23.802;2022-08-25T13:42:53;99783.31;;;29.43;39.68
55675;BME280;41562;44.330;23.802;2022-08-25T13:45:31;99774.38;;;29.29;40.04
55675;BME280;41562;44.330;23.802;2022-08-25T13:48:09;99773.59;;;29.28;40.08
55675;BME280;41562;44.330;23.802;2022-08-25T13:50:52;99773.16;;;29.37;40.51
55675;BME280;41562;44.330;23.802;2022-08-25T13:53:40;99771.06;;;29.48;40.27
55675;BME280;41562;44.330;23.802;2022-08-25T13:59:03;99755.09;;;29.29;39.99
55675;BME280;41562;44.330;23.802;2022-08-25T14:01:42;99754.72;;;29.34;39.64
55675;BME280;41562;44.330;23.802;2022-08-25T14:09:47;99758.19;;;29.38;41.07
55675;BME280;41562;44.330;23.802;2022-08-25T14:12:32;99753.00;;;29.43;40.69
55675;BME280;41562;44.330;23.802;2022-08-25T14:15:46;99759.34;;;29.40;40.27
55675;BME280;41562;44.330;23.802;2022-08-25T14:18:12;99757.00;;;29.39;41.03
55675;BME280;41562;44.330;23.802;2022-08-25T14:20:48;99758.97;;;29.38;40.83
55675;BME280;41562;44.330;23.802;2022-08-25T14:23:21;99750.78;;;29.28;41.17
55675;BME280;41562;44.330;23.802;2022-08-25T14:25:54;99757.47;;;29.34;41.57
55675;BME280;41562;44.330;23.802;2022-08-25T14:28:28;99747.59;;;29.33;42.39
55675;BME280;41562;44.330;23.802;2022-08-25T14:30:58;99745.22;;;29.35;41.99
55675;BME280;41562;44.330;23.802;2022-08-25T14:33:34;99741.31;;;29.29;41.59
55675;BME280;41562;44.330;23.802;2022-08-25T14:36:03;99738.28;;;29.19;44.88
55675;BME280;41562;44.330;23.802;2022-08-25T14:38:31;99742.25;;;29.15;43.09
55675;BME280;41562;44.330;23.802;2022-08-25T14:41:02;99741.50;;;29.14;43.02
55675;BME280;41562;44.330;23.802;2022-08-25T14:43:29;99740.13;;;29.30;41.89
55675;BME280;41562;44.330;23.802;2022-08-25T14:45:59;99731.94;;;29.23;42.53
55675;BME280;41562;44.330;23.802;2022-08-25T14:48:33;99735.53;;;29.19;41.53
55675;BME280;41562;44.330;23.802;2022-08-25T14:51:04;99729.63;;;29.17;42.09
55675;BME280;41562;44.330;23.802;2022-08-25T14:53:37;99728.53;;;29.11;43.74
55675;BME280;41562;44.330;23.802;2022-08-25T14:56:09;99724.78;;;29.29;42.59
55675;BME280;41562;44.330;23.802;2022-08-25T14:58:43;99729.50;;;29.32;42.99
55675;BME280;41562;44.330;23.802;2022-08-25T15:01:21;99727.22;;;29.23;42.39
55675;BME280;41562;44.330;23.802;2022-08-25T15:04:01;99720.97;;;29.19;43.26
55675;BME280;41562;44.330;23.802;2022-08-25T15:06:35;99729.63;;;29.17;42.92
55675;BME280;41562;44.330;23.802;2022-08-25T15:09:05;99727.66;;;29.18;42.47
55675;BME280;41562;44.330;23.802;2022-08-25T15:11:34;99730.47;;;29.14;42.31
55675;BME280;41562;44.330;23.802;2022-08-25T15:14:08;99736.03;;;29.07;42.90